KFRG/FRG METAR and TAF weather

Enter ICAO airport designator
Station Type Date Time Source
KFRG METAR 2020/11/28 19:53 UTC NOAA

KFRG 281953Z 28008KT 10SM OVC075 13/02 A2994 RMK AO2 SLP140 T01280017


Station Type Date Time Source
KFRG Decoded METAR 2020/11/28 19:53 UTC NOAA

FARMINGDALE REPUBLIC AIRPORT , NY, United States (KFRG) 40-44N 073-25W 21M
Nov 28, 2020 - 02:53 PM EST / 2020.11.28 1953 UTC
Wind: from the W (280 degrees) at 9 MPH (8 KT):0
Visibility: 10 mile(s):0
Sky conditions: overcast
Temperature: 55.0 F (12.8 C)
Dew Point: 35.1 F (1.7 C)
Relative Humidity: 46%
Pressure (altimeter): 29.94 in. Hg (1013 hPa)
ob: KFRG 281953Z 28008KT 10SM OVC075 13/02 A2994 RMK AO2 SLP140 T01280017
cycle: 20

Station Type Date Time Source
KFRG TAF UTC NOAA

Error!

Example: see airport list